Time;durP1;ratioP1;P1;durP2;ratioP2;P2;SDS_P1;SDS_P2;PMS_P1;PMS_P2;Temp;Humidity;BMP_temperature;BMP_pressure;BME280_temperature;BME280_humidity;BME280_pressure;Samples;Min_cycle;Max_cycle;Signal;HPM_P1;HPM_P2
2021/05/10 00:00:54;;;;;;;6.78;2.80;;;19.90;83.50;;;;;;4971512;28;20031;-63
2021/05/10 00:03:21;;;;;;;5.50;3.55;;;19.80;83.60;;;;;;4972110;28;20349;-62
2021/05/10 00:05:48;;;;;;;4.60;2.95;;;19.80;84.40;;;;;;4956059;28;20089;-63
2021/05/10 00:08:14;;;;;;;3.70;3.13;;;19.80;84.40;;;;;;4973626;28;20077;-62
2021/05/10 00:10:41;;;;;;;4.10;2.60;;;19.70;85.10;;;;;;4971998;28;20062;-62
2021/05/10 00:13:08;;;;;;;4.07;2.60;;;19.70;85.30;;;;;;4954881;28;20027;-63
2021/05/10 00:15:34;;;;;;;4.63;2.95;;;19.70;85.60;;;;;;4972628;28;20026;-63
2021/05/10 00:18:03;;;;;;;5.13;3.10;;;19.60;86.60;;;;;;4981760;28;20030;-62
2021/05/10 00:20:34;;;;;;;5.15;2.95;;;19.60;87.40;;;;;;4972607;28;20086;-63
2021/05/10 00:23:00;;;;;;;3.28;2.40;;;19.50;88.30;;;;;;4982938;28;20069;-63
2021/05/10 00:25:26;;;;;;;6.15;3.13;;;19.50;88.90;;;;;;4981604;28;20026;-64
2021/05/10 00:27:52;;;;;;;4.30;2.97;;;19.50;88.50;;;;;;4982062;28;20035;-63
2021/05/10 00:30:19;;;;;;;4.68;2.92;;;19.50;88.70;;;;;;4982149;28;20023;-64
2021/05/10 00:32:45;;;;;;;6.30;3.08;;;19.50;89.20;;;;;;4981314;28;20026;-64
2021/05/10 00:35:13;;;;;;;6.20;3.15;;;19.40;89.10;;;;;;4981185;28;20460;-62
2021/05/10 00:37:38;;;;;;;3.50;2.30;;;19.40;89.80;;;;;;4981709;28;20285;-64
2021/05/10 00:40:06;;;;;;;6.30;2.80;;;19.40;89.10;;;;;;4980677;28;20023;-64
2021/05/10 00:42:32;;;;;;;5.03;2.88;;;19.40;90.40;;;;;;4980459;28;20026;-62
2021/05/10 00:44:57;;;;;;;7.13;3.50;;;19.30;90.40;;;;;;4970538;28;20093;-62
2021/05/10 00:47:23;;;;;;;5.32;3.35;;;19.30;90.80;;;;;;4987494;28;20034;-63
2021/05/10 00:49:48;;;;;;;7.25;3.17;;;19.30;91.20;;;;;;4990383;28;20531;-63
2021/05/10 00:52:14;;;;;;;4.93;2.58;;;19.30;91.20;;;;;;4990220;28;20066;-64
2021/05/10 00:54:40;;;;;;;5.90;3.35;;;19.30;91.50;;;;;;4990988;28;20116;-63
2021/05/10 00:57:06;;;;;;;7.20;2.65;;;19.20;91.50;;;;;;4991036;28;20034;-64
2021/05/10 00:59:31;;;;;;;4.15;3.25;;;19.20;91.80;;;;;;4972846;28;20039;-62
2021/05/10 01:01:57;;;;;;;5.47;3.65;;;19.20;92.20;;;;;;4973595;28;20029;-63
2021/05/10 01:04:23;;;;;;;4.22;3.10;;;19.10;92.60;;;;;;4990113;28;20439;-62
2021/05/10 01:06:48;;;;;;;7.72;3.22;;;19.10;92.50;;;;;;4991480;28;20060;-62
2021/05/10 01:09:14;;;;;;;7.47;3.05;;;19.10;93.00;;;;;;4991082;28;20431;-62
2021/05/10 01:11:40;;;;;;;3.95;2.80;;;19.10;93.20;;;;;;4990395;28;20037;-63
2021/05/10 01:14:05;;;;;;;5.05;3.42;;;19.00;93.50;;;;;;4990053;28;20022;-63
2021/05/10 01:16:31;;;;;;;3.15;2.85;;;18.90;93.90;;;;;;4990030;28;20038;-63
2021/05/10 01:18:57;;;;;;;7.75;2.80;;;19.00;94.20;;;;;;4990854;28;20384;-63
2021/05/10 01:21:25;;;;;;;3.67;3.08;;;19.00;94.50;;;;;;4972643;28;20476;-62
2021/05/10 01:23:51;;;;;;;7.88;3.40;;;18.90;94.60;;;;;;4990556;28;20105;-62
2021/05/10 01:26:16;;;;;;;6.28;2.97;;;19.00;94.60;;;;;;4990725;28;20453;-64
2021/05/10 01:28:42;;;;;;;5.55;3.17;;;18.90;95.20;;;;;;4990157;28;20034;-63
2021/05/10 01:31:08;;;;;;;3.65;2.70;;;18.90;95.40;;;;;;4990432;28;20097;-64
2021/05/10 01:33:35;;;;;;;4.60;2.80;;;18.90;95.40;;;;;;4972325;28;20108;-63
2021/05/10 01:36:00;;;;;;;5.00;2.97;;;19.00;95.70;;;;;;4972770;28;20109;-62
2021/05/10 01:38:26;;;;;;;4.63;2.90;;;19.00;95.40;;;;;;4972485;28;20046;-62
2021/05/10 01:40:52;;;;;;;3.63;3.17;;;19.10;95.70;;;;;;4990486;28;20451;-63
2021/05/10 01:43:18;;;;;;;3.08;2.78;;;19.00;95.70;;;;;;4989942;28;20466;-63
2021/05/10 01:45:45;;;;;;;7.85;3.13;;;19.00;95.90;;;;;;4989830;28;20113;-62
2021/05/10 01:48:13;;;;;;;4.05;2.80;;;19.00;96.10;;;;;;4990060;28;20522;-63
2021/05/10 01:50:41;;;;;;;6.35;3.10;;;19.00;96.20;;;;;;4990220;28;20109;-63
2021/05/10 01:53:08;;;;;;;4.35;2.75;;;19.00;96.10;;;;;;4990568;28;20054;-62
2021/05/10 01:55:34;;;;;;;4.00;3.15;;;19.00;96.20;;;;;;4989887;28;20113;-63
2021/05/10 01:58:02;;;;;;;4.55;2.83;;;18.80;96.50;;;;;;4972840;28;20030;-63
2021/05/10 02:00:33;;;;;;;3.80;2.78;;;18.80;96.80;;;;;;4971997;28;20388;-63
2021/05/10 02:03:04;;;;;;;4.90;3.28;;;18.80;96.80;;;;;;4990483;28;20084;-63
2021/05/10 02:05:30;;;;;;;4.57;3.05;;;18.80;96.80;;;;;;4989475;28;20030;-63
2021/05/10 02:07:58;;;;;;;4.55;3.03;;;18.90;96.50;;;;;;4990309;28;20077;-62
2021/05/10 02:10:37;;;;;;;2.88;2.65;;;18.90;96.80;;;;;;4971961;28;20026;-63
2021/05/10 02:13:08;;;;;;;4.65;2.97;;;19.00;96.60;;;;;;4990148;28;20038;-63
2021/05/10 02:15:43;;;;;;;3.75;3.33;;;19.00;96.30;;;;;;4989271;28;20038;-63
2021/05/10 02:18:10;;;;;;;6.50;3.63;;;19.00;96.10;;;;;;4972342;28;20037;-61
2021/05/10 02:20:37;;;;;;;5.53;3.47;;;19.10;96.10;;;;;;4971990;28;20030;-63
2021/05/10 02:23:14;;;;;;;5.25;3.17;;;19.00;96.20;;;;;;4990278;28;20030;-62
2021/05/10 02:25:42;;;;;;;3.65;3.35;;;19.00;96.40;;;;;;4974214;28;20480;-62
2021/05/10 02:28:10;;;;;;;6.53;3.45;;;18.80;96.80;;;;;;4994231;28;20154;-62
2021/05/10 02:30:37;;;;;;;7.03;3.60;;;18.80;97.00;;;;;;4993402;28;20433;-62
2021/05/10 02:33:09;;;;;;;6.25;3.50;;;18.80;97.00;;;;;;4976791;28;20077;-62
2021/05/10 02:35:35;;;;;;;3.90;3.30;;;18.70;97.30;;;;;;4975348;28;20046;-62
2021/05/10 02:38:01;;;;;;;5.55;3.00;;;18.70;97.60;;;;;;4976106;28;20096;-63
2021/05/10 02:40:27;;;;;;;3.17;2.60;;;18.60;97.90;;;;;;4993406;28;20102;-62
2021/05/10 02:42:52;;;;;;;6.88;2.83;;;18.50;98.50;;;;;;4993827;28;20109;-63
2021/05/10 02:45:19;;;;;;;6.55;3.25;;;18.40;98.80;;;;;;4976197;28;20057;-63
2021/05/10 02:47:46;;;;;;;5.85;3.20;;;18.20;99.40;;;;;;4993178;28;20325;-63
2021/05/10 02:50:14;;;;;;;7.82;3.25;;;18.20;99.40;;;;;;4976187;28;20034;-62
2021/05/10 02:52:40;;;;;;;4.82;3.28;;;18.00;99.80;;;;;;4992653;28;20117;-62
2021/05/10 02:55:07;;;;;;;5.05;3.15;;;17.80;99.90;;;;;;4993330;28;20101;-63
2021/05/10 02:57:34;;;;;;;5.53;2.97;;;17.90;99.90;;;;;;4992637;28;20445;-63
2021/05/10 03:00:00;;;;;;;5.47;2.67;;;17.80;99.90;;;;;;4993798;28;20065;-61
2021/05/10 03:02:26;;;;;;;4.03;3.00;;;17.90;99.90;;;;;;4975401;28;20050;-63
2021/05/10 03:04:52;;;;;;;5.93;3.00;;;17.80;99.90;;;;;;4975751;28;20551;-63
2021/05/10 03:07:17;;;;;;;9.45;3.25;;;17.70;99.90;;;;;;4993138;28;20057;-62
2021/05/10 03:09:44;;;;;;;5.82;3.65;;;17.70;99.90;;;;;;4992196;28;20035;-62
2021/05/10 03:12:10;;;;;;;3.88;3.55;;;17.50;99.90;;;;;;4993043;28;20050;-62
2021/05/10 03:14:35;;;;;;;3.67;3.03;;;17.50;99.90;;;;;;4974761;28;20086;-63
2021/05/10 03:17:01;;;;;;;5.85;3.42;;;17.50;99.90;;;;;;4993134;28;20468;-63
2021/05/10 03:19:26;;;;;;;6.95;3.22;;;17.50;99.90;;;;;;4992380;28;20341;-64
2021/05/10 03:21:52;;;;;;;5.25;3.80;;;17.50;99.90;;;;;;4992914;28;20068;-62
2021/05/10 03:24:18;;;;;;;6.05;3.20;;;17.50;99.90;;;;;;4975032;28;20058;-62
2021/05/10 03:26:44;;;;;;;8.98;3.45;;;17.60;99.90;;;;;;4974632;28;20455;-63
2021/05/10 03:29:10;;;;;;;4.20;3.38;;;17.70;99.90;;;;;;4992832;28;20065;-62
2021/05/10 03:31:36;;;;;;;7.45;3.60;;;17.70;99.90;;;;;;4991895;28;20105;-63
2021/05/10 03:34:02;;;;;;;4.47;3.38;;;17.90;99.90;;;;;;4974966;28;20042;-62
2021/05/10 03:36:28;;;;;;;3.75;3.08;;;17.80;99.90;;;;;;4991706;28;20035;-62
2021/05/10 03:38:54;;;;;;;8.73;3.10;;;17.90;99.90;;;;;;4992623;28;20451;-63
2021/05/10 03:41:20;;;;;;;3.28;2.95;;;17.80;99.90;;;;;;4974790;28;20117;-62
2021/05/10 03:43:47;;;;;;;7.22;3.42;;;17.90;99.90;;;;;;4991977;28;20108;-63
2021/05/10 03:46:12;;;;;;;3.70;2.75;;;17.80;99.90;;;;;;4974929;28;20038;-63
2021/05/10 03:48:38;;;;;;;6.05;3.47;;;17.90;99.90;;;;;;4992146;28;20034;-62
2021/05/10 03:51:04;;;;;;;7.82;3.22;;;17.80;99.90;;;;;;4974856;28;20026;-62
2021/05/10 03:53:29;;;;;;;6.68;3.10;;;17.80;99.90;;;;;;4991916;28;20026;-62
2021/05/10 03:55:55;;;;;;;3.97;3.35;;;17.80;99.90;;;;;;4974516;28;20030;-64
2021/05/10 03:58:20;;;;;;;3.63;3.08;;;17.80;99.90;;;;;;4974866;28;20073;-63
2021/05/10 04:00:46;;;;;;;2.72;2.53;;;17.80;99.90;;;;;;4991957;28;20027;-62
2021/05/10 04:03:14;;;;;;;10.88;3.25;;;17.80;99.90;;;;;;4992228;28;20054;-62
2021/05/10 04:11:24;;;;;;;7.78;3.50;;;18.00;99.90;;;;;;4991949;28;20057;-62
2021/05/10 04:13:55;;;;;;;5.63;3.78;;;18.00;99.90;;;;;;4974066;28;20031;-62
2021/05/10 04:16:20;;;;;;;6.15;4.38;;;17.80;99.90;;;;;;4992020;28;20036;-61
2021/05/10 04:18:46;;;;;;;7.25;3.42;;;17.90;99.90;;;;;;4973859;28;20030;-63
2021/05/10 04:21:12;;;;;;;4.47;3.72;;;18.00;99.90;;;;;;4974361;28;20022;-63
2021/05/10 04:23:37;;;;;;;6.55;3.50;;;18.10;99.90;;;;;;4991193;28;20072;-63
2021/05/10 04:26:03;;;;;;;7.18;3.10;;;18.10;99.90;;;;;;4991832;28;20034;-62
2021/05/10 04:28:34;;;;;;;3.75;3.00;;;18.10;99.90;;;;;;4974511;28;20110;-62
2021/05/10 04:31:00;;;;;;;3.80;3.20;;;18.10;99.90;;;;;;4992144;28;20054;-64
2021/05/10 04:33:32;;;;;;;6.95;2.92;;;18.10;99.90;;;;;;4974016;28;20184;-63
2021/05/10 04:35:58;;;;;;;5.10;3.70;;;18.10;99.90;;;;;;4973977;28;20467;-62
2021/05/10 04:38:24;;;;;;;10.05;3.47;;;18.10;99.90;;;;;;4974086;28;20038;-62
2021/05/10 04:40:51;;;;;;;4.78;2.85;;;18.10;99.90;;;;;;4991004;28;20378;-62
2021/05/10 04:43:16;;;;;;;7.53;3.40;;;18.20;99.90;;;;;;4991341;28;20037;-62
2021/05/10 04:45:43;;;;;;;6.50;3.10;;;18.30;99.90;;;;;;4973305;28;20034;-62
2021/05/10 04:48:09;;;;;;;6.80;3.08;;;18.00;99.90;;;;;;4990451;28;20102;-62
2021/05/10 04:50:34;;;;;;;6.80;3.72;;;18.10;99.90;;;;;;4973279;28;20117;-63
2021/05/10 04:53:00;;;;;;;8.55;4.03;;;18.00;99.90;;;;;;4990985;28;20030;-62
2021/05/10 04:55:26;;;;;;;3.53;2.78;;;18.00;99.90;;;;;;4991545;28;20041;-62
2021/05/10 04:57:52;;;;;;;9.00;3.75;;;18.10;99.90;;;;;;4973021;28;20050;-62
2021/05/10 05:00:18;;;;;;;4.93;2.65;;;18.10;99.90;;;;;;4973417;28;20353;-63
2021/05/10 05:02:47;;;;;;;4.85;2.20;;;18.20;99.90;;;;;;4990660;28;20033;-62
2021/05/10 05:05:13;;;;;;;8.93;3.17;;;18.20;99.40;;;;;;4973283;28;20146;-61
2021/05/10 05:07:39;;;;;;;9.32;3.25;;;18.30;99.40;;;;;;4972973;28;20192;-62
2021/05/10 05:10:07;;;;;;;8.73;3.00;;;18.40;99.50;;;;;;4991219;28;20022;-63
2021/05/10 05:12:33;;;;;;;5.15;2.33;;;18.30;99.60;;;;;;4972782;28;20027;-68
2021/05/10 05:14:59;;;;;;;6.47;2.67;;;18.40;99.20;;;;;;4973263;28;20041;-63
2021/05/10 05:17:24;;;;;;;6.78;2.28;;;18.40;99.10;;;;;;4990814;28;20479;-63
2021/05/10 05:19:50;;;;;;;6.95;2.80;;;18.50;99.10;;;;;;4972236;28;20054;-63
2021/05/10 05:22:16;;;;;;;4.53;2.72;;;18.50;99.00;;;;;;4973034;28;20383;-63
2021/05/10 05:24:42;;;;;;;5.25;3.00;;;18.50;99.30;;;;;;4989632;28;20058;-63
2021/05/10 05:27:08;;;;;;;5.30;2.53;;;18.50;99.10;;;;;;4990430;28;20026;-63
2021/05/10 05:29:34;;;;;;;5.65;2.40;;;18.60;99.50;;;;;;4979034;28;20388;-63
2021/05/10 05:32:00;;;;;;;7.63;2.50;;;18.70;99.00;;;;;;4942032;29;20031;-63
2021/05/10 05:34:27;;;;;;;7.85;3.10;;;18.70;99.10;;;;;;4933701;29;20122;-64
2021/05/10 05:36:53;;;;;;;6.90;2.83;;;18.70;98.60;;;;;;4932689;29;20323;-63
2021/05/10 05:39:18;;;;;;;9.90;3.13;;;18.80;99.00;;;;;;4950816;29;20184;-64
2021/05/10 05:41:44;;;;;;;5.15;2.72;;;18.90;98.50;;;;;;4950201;29;20476;-62
2021/05/10 05:44:10;;;;;;;8.18;2.55;;;18.90;98.30;;;;;;4948908;29;20477;-59
2021/05/10 05:46:39;;;;;;;8.27;2.53;;;19.10;98.40;;;;;;4936646;28;20057;-57
2021/05/10 05:49:05;;;;;;;5.18;2.63;;;19.40;97.70;;;;;;4951907;28;20122;-64
2021/05/10 05:51:31;;;;;;;3.15;2.45;;;19.50;97.40;;;;;;4969267;28;20429;-63
2021/05/10 05:53:57;;;;;;;8.48;2.55;;;19.40;97.30;;;;;;4951659;28;20081;-62
2021/05/10 05:56:24;;;;;;;12.23;2.22;;;19.50;97.00;;;;;;4969778;28;20138;-62
2021/05/10 05:58:50;;;;;;;7.10;2.80;;;19.50;96.90;;;;;;4951079;28;20030;-63
2021/05/10 06:01:16;;;;;;;8.00;3.10;;;19.50;96.90;;;;;;4967278;28;20053;-63
2021/05/10 06:03:42;;;;;;;8.10;2.25;;;19.50;96.80;;;;;;4966916;28;20047;-63
2021/05/10 06:06:10;;;;;;;2.47;1.90;;;19.60;96.30;;;;;;4951282;28;20128;-64
2021/05/10 06:08:36;;;;;;;6.10;2.67;;;19.50;96.00;;;;;;4967363;28;20034;-60
2021/05/10 06:11:03;;;;;;;5.15;1.88;;;19.60;95.50;;;;;;4967338;28;20067;-64
2021/05/10 06:13:29;;;;;;;12.95;2.25;;;19.60;95.20;;;;;;4967123;28;20038;-63
2021/05/10 06:15:55;;;;;;;4.80;1.92;;;19.70;95.40;;;;;;4950638;28;20042;-60
2021/05/10 06:18:21;;;;;;;5.55;2.75;;;19.80;94.90;;;;;;4967364;28;20399;-65
2021/05/10 06:20:46;;;;;;;7.57;2.47;;;19.80;94.80;;;;;;4966511;28;20352;-61
2021/05/10 06:23:12;;;;;;;4.70;1.73;;;19.90;95.00;;;;;;4951274;28;20055;-63
2021/05/10 06:25:38;;;;;;;6.28;2.08;;;19.90;94.80;;;;;;4966706;28;20034;-62
2021/05/10 06:28:04;;;;;;;4.20;1.58;;;19.90;94.60;;;;;;4967064;28;20039;-62
2021/05/10 06:30:30;;;;;;;3.22;1.63;;;19.90;94.50;;;;;;4967079;28;20031;-64
2021/05/10 06:32:55;;;;;;;6.85;1.58;;;20.00;94.30;;;;;;4968603;28;20034;-62
2021/05/10 06:35:22;;;;;;;5.47;2.45;;;20.10;94.40;;;;;;4969999;28;20400;-63
2021/05/10 06:37:48;;;;;;;5.25;1.80;;;20.20;94.30;;;;;;4968807;28;20050;-65
2021/05/10 06:40:14;;;;;;;5.53;1.88;;;20.30;93.90;;;;;;4952116;28;20468;-61
2021/05/10 06:42:39;;;;;;;9.57;1.90;;;20.30;93.60;;;;;;4968515;28;20027;-64
2021/05/10 06:45:07;;;;;;;1.70;1.08;;;20.40;93.80;;;;;;4969291;28;20465;-62
2021/05/10 06:47:40;;;;;;;4.63;1.70;;;20.40;93.70;;;;;;4968619;28;20034;-61
2021/05/10 06:50:07;;;;;;;4.75;1.80;;;20.50;93.40;;;;;;4969620;28;20085;-61
2021/05/10 06:52:34;;;;;;;2.65;1.55;;;20.50;93.60;;;;;;4961075;28;20138;-63
2021/05/10 06:55:01;;;;;;;8.05;2.50;;;20.60;93.20;;;;;;4950934;28;20082;-65
2021/05/10 06:57:27;;;;;;;5.95;1.58;;;20.70;93.40;;;;;;4969249;28;20034;-61
2021/05/10 06:59:52;;;;;;;2.28;2.00;;;20.80;92.70;;;;;;4951167;28;20039;-61
2021/05/10 07:02:21;;;;;;;4.30;1.73;;;20.90;92.60;;;;;;4969416;28;20034;-61
2021/05/10 07:04:47;;;;;;;9.07;1.63;;;21.00;92.20;;;;;;4950895;28;20503;-63
2021/05/10 07:07:12;;;;;;;3.78;1.50;;;21.20;91.90;;;;;;4969370;28;20469;-62
2021/05/10 07:09:38;;;;;;;6.97;1.50;;;21.20;91.80;;;;;;4968227;28;20031;-62
2021/05/10 07:12:04;;;;;;;7.35;1.50;;;21.10;91.60;;;;;;4971693;28;20114;-62
2021/05/10 07:14:30;;;;;;;7.00;1.33;;;21.10;91.80;;;;;;4972829;28;20031;-63
2021/05/10 07:16:56;;;;;;;4.50;1.52;;;20.80;92.50;;;;;;4954825;28;20389;-62
2021/05/10 07:19:21;;;;;;;7.10;1.42;;;20.80;92.50;;;;;;4973032;28;20062;-63
2021/05/10 07:21:47;;;;;;;5.97;1.48;;;20.70;92.60;;;;;;4972204;28;20524;-65
2021/05/10 07:24:13;;;;;;;4.93;1.27;;;20.70;92.50;;;;;;4972335;28;20448;-62
2021/05/10 07:26:39;;;;;;;4.75;1.48;;;20.70;92.70;;;;;;4971707;28;20031;-62
2021/05/10 07:29:06;;;;;;;3.20;1.30;;;20.70;92.30;;;;;;4972293;28;20038;-62
2021/05/10 07:31:32;;;;;;;3.67;1.13;;;20.70;92.40;;;;;;4955208;28;20035;-61
2021/05/10 07:33:58;;;;;;;2.97;1.50;;;20.80;92.20;;;;;;4954331;28;20113;-62
2021/05/10 07:36:23;;;;;;;3.90;1.02;;;20.80;92.20;;;;;;4972363;28;20042;-67
2021/05/10 07:38:49;;;;;;;5.95;1.75;;;20.80;92.00;;;;;;4971747;28;20473;-62
2021/05/10 07:41:15;;;;;;;2.63;1.05;;;20.80;92.30;;;;;;4954253;28;20447;-63
2021/05/10 07:43:41;;;;;;;3.67;1.05;;;20.90;92.20;;;;;;4971571;28;20031;-61
2021/05/10 07:46:07;;;;;;;2.92;1.13;;;21.00;91.70;;;;;;4954552;28;20362;-60
2021/05/10 07:48:33;;;;;;;9.43;1.48;;;21.10;91.60;;;;;;4972776;28;20440;-62
2021/05/10 07:50:59;;;;;;;4.65;1.05;;;21.10;91.70;;;;;;4972133;28;20030;-61
2021/05/10 07:53:25;;;;;;;6.88;1.60;;;21.30;91.80;;;;;;4972532;28;20027;-60
2021/05/10 07:55:50;;;;;;;7.32;1.73;;;21.40;91.50;;;;;;4972243;28;20031;-60
2021/05/10 07:58:24;;;;;;;4.50;0.80;;;21.60;91.20;;;;;;4955434;28;20055;-63
2021/05/10 08:00:56;;;;;;;5.68;1.13;;;21.60;91.10;;;;;;4954644;28;20038;-61
2021/05/10 08:03:26;;;;;;;3.42;1.30;;;21.70;91.20;;;;;;4955486;28;20467;-61
2021/05/10 08:05:52;;;;;;;8.17;1.27;;;21.60;91.00;;;;;;4954892;28;20120;-60
2021/05/10 08:08:22;;;;;;;6.68;1.48;;;21.40;91.30;;;;;;4972755;28;20110;-61
2021/05/10 08:10:48;;;;;;;2.95;0.82;;;21.40;91.40;;;;;;4970019;28;20451;-65
2021/05/10 08:13:14;;;;;;;4.70;1.52;;;21.20;91.60;;;;;;4970934;28;20058;-61
2021/05/10 08:15:40;;;;;;;5.00;0.98;;;21.00;91.80;;;;;;4953035;28;20475;-61
2021/05/10 08:18:05;;;;;;;4.60;0.93;;;20.90;91.30;;;;;;4937572;28;20134;-62
2021/05/10 08:20:31;;;;;;;3.42;1.20;;;20.90;91.20;;;;;;4971315;28;20475;-62
2021/05/10 08:22:57;;;;;;;8.60;1.30;;;20.90;91.30;;;;;;4969111;28;20380;-61
2021/05/10 08:25:24;;;;;;;2.45;0.80;;;20.90;90.70;;;;;;4954011;28;20054;-62
2021/05/10 08:27:50;;;;;;;2.15;0.82;;;20.80;90.70;;;;;;4970315;28;20073;-61
2021/05/10 08:30:16;;;;;;;10.93;1.38;;;20.80;90.60;;;;;;4953354;28;20062;-62
2021/05/10 08:32:42;;;;;;;3.75;0.90;;;20.70;90.50;;;;;;4952751;28;20082;-61
2021/05/10 08:35:11;;;;;;;4.95;1.10;;;20.70;90.80;;;;;;4953250;28;20435;-60
2021/05/10 08:37:38;;;;;;;8.93;1.40;;;20.80;90.60;;;;;;4970231;28;20031;-67
2021/05/10 08:40:05;;;;;;;2.38;0.73;;;20.90;90.40;;;;;;4970948;28;20099;-60
2021/05/10 08:42:31;;;;;;;11.80;1.02;;;20.90;90.20;;;;;;4952975;28;20534;-63
2021/05/10 08:44:59;;;;;;;2.95;0.85;;;21.00;90.20;;;;;;4970200;28;20106;-61
2021/05/10 08:47:32;;;;;;;8.50;0.85;;;21.10;90.00;;;;;;4953220;28;20126;-61
2021/05/10 08:50:05;;;;;;;2.50;0.82;;;21.10;90.10;;;;;;4952935;28;20465;-61
2021/05/10 08:52:33;;;;;;;5.47;0.90;;;21.10;90.50;;;;;;4953350;28;20039;-62
2021/05/10 08:54:59;;;;;;;4.68;0.93;;;21.10;90.10;;;;;;4951929;28;20031;-61
2021/05/10 08:57:25;;;;;;;3.90;0.75;;;21.10;90.00;;;;;;4970440;28;20061;-61
2021/05/10 08:59:50;;;;;;;3.15;0.50;;;21.30;89.20;;;;;;4951767;28;20031;-62
2021/05/10 09:02:32;;;;;;;4.68;0.70;;;21.50;88.80;;;;;;4952950;28;20062;-61
2021/05/10 09:05:10;;;;;;;4.25;0.70;;;21.50;88.20;;;;;;4952480;28;20038;-62
2021/05/10 09:07:36;;;;;;;2.55;0.40;;;21.70;86.60;;;;;;4969118;28;20062;-72
2021/05/10 09:10:08;;;;;;;4.75;0.40;;;21.60;85.10;;;;;;4952518;28;20133;-62
2021/05/10 09:12:44;;;;;;;2.42;0.35;;;21.70;83.80;;;;;;4951448;28;20061;-64
2021/05/10 09:15:28;;;;;;;4.40;0.55;;;21.60;84.50;;;;;;4952224;28;20095;-62
2021/05/10 09:18:02;;;;;;;2.17;0.43;;;21.60;85.10;;;;;;4969060;28;20067;-61
2021/05/10 09:20:40;;;;;;;2.67;0.38;;;21.60;85.30;;;;;;4970028;28;20136;-61
2021/05/10 09:23:09;;;;;;;3.72;1.02;;;21.50;85.70;;;;;;4952400;28;20049;-61
2021/05/10 09:25:36;;;;;;;3.70;0.73;;;21.50;85.40;;;;;;4952288;28;20433;-61
2021/05/10 09:28:22;;;;;;;2.45;0.55;;;21.60;85.00;;;;;;4969610;28;20030;-64
2021/05/10 09:30:50;;;;;;;1.92;0.30;;;21.50;84.20;;;;;;4961735;28;20090;-60
2021/05/10 09:33:27;;;;;;;1.08;0.30;;;21.50;83.50;;;;;;4988771;28;20030;-65
2021/05/10 09:36:02;;;;;;;1.85;0.10;;;21.30;82.90;;;;;;4946774;28;20432;-62
2021/05/10 09:38:29;;;;;;;1.52;0.35;;;21.10;82.80;;;;;;4931778;29;20430;-62
2021/05/10 09:40:57;;;;;;;2.63;0.40;;;21.10;82.90;;;;;;4952920;28;20026;-61
2021/05/10 09:43:28;;;;;;;2.40;0.45;;;21.10;83.30;;;;;;4969335;28;20147;-61
2021/05/10 09:45:59;;;;;;;1.38;0.43;;;21.00;83.80;;;;;;4950945;28;20392;-61
2021/05/10 09:48:27;;;;;;;;;;;21.10;83.70;;;;;;4957480;28;20445;-60
2021/05/10 09:50:56;;;;;;;2.08;0.50;;;21.10;84.00;;;;;;4961528;28;19914;-64
2021/05/10 09:53:48;;;;;;;1.40;0.57;;;21.10;83.50;;;;;;4974798;28;20062;-60
2021/05/10 09:56:19;;;;;;;2.85;0.32;;;20.90;84.00;;;;;;4951241;28;20501;-62
2021/05/10 09:58:47;;;;;;;5.75;0.30;;;20.80;84.10;;;;;;4976733;28;20357;-61
2021/05/10 10:01:13;;;;;;;1.60;0.40;;;20.80;84.20;;;;;;4967447;28;20031;-61
2021/05/10 10:03:46;;;;;;;6.25;0.52;;;20.70;84.60;;;;;;4954979;28;20042;-63
2021/05/10 10:06:14;;;;;;;1.90;0.25;;;20.80;84.80;;;;;;4983362;28;20108;-61
2021/05/10 10:08:42;;;;;;;3.63;0.43;;;20.70;85.20;;;;;;4974199;28;20432;-67
2021/05/10 10:11:10;;;;;;;2.40;0.50;;;20.70;85.90;;;;;;4975320;28;20121;-61
2021/05/10 10:13:36;;;;;;;3.33;0.40;;;20.60;86.00;;;;;;4958531;28;20387;-62
2021/05/10 10:16:03;;;;;;;1.63;0.40;;;20.70;86.30;;;;;;4961089;28;20030;-62
2021/05/10 10:18:29;;;;;;;4.43;0.47;;;20.70;86.30;;;;;;4974729;28;20091;-61
2021/05/10 10:20:57;;;;;;;2.95;0.38;;;20.60;86.80;;;;;;4970346;28;20113;-63
2021/05/10 10:23:26;;;;;;;3.83;0.30;;;20.60;86.90;;;;;;4982465;28;20050;-62
2021/05/10 10:25:52;;;;;;;0.65;0.30;;;20.60;86.30;;;;;;4968359;28;20191;-61
2021/05/10 10:28:20;;;;;;;3.08;0.20;;;20.40;86.10;;;;;;4970389;28;20031;-62
2021/05/10 10:31:07;;;;;;;3.08;0.28;;;20.50;86.30;;;;;;4950760;28;20042;-67
2021/05/10 10:33:47;;;;;;;1.15;0.40;;;20.50;85.80;;;;;;4964410;28;20045;-60
2021/05/10 10:36:19;;;;;;;1.67;0.20;;;20.50;86.50;;;;;;4970929;28;20396;-62
2021/05/10 10:38:45;;;;;;;2.30;0.43;;;20.80;86.50;;;;;;4966080;28;20034;-62
2021/05/10 10:41:23;;;;;;;2.20;0.20;;;21.00;86.10;;;;;;4959744;28;20492;-62
2021/05/10 10:43:49;;;;;;;1.20;0.40;;;21.30;85.40;;;;;;4954635;28;20117;-60
2021/05/10 10:46:21;;;;;;;3.20;0.40;;;21.20;85.00;;;;;;4962454;28;20030;-62
2021/05/10 10:48:48;;;;;;;1.02;0.30;;;21.10;85.50;;;;;;4960262;28;20022;-61
2021/05/10 10:51:15;;;;;;;3.78;0.38;;;20.80;85.70;;;;;;4966612;28;20026;-68
2021/05/10 10:53:51;;;;;;;1.20;0.32;;;20.80;86.50;;;;;;4977131;28;20337;-64
2021/05/10 10:56:17;;;;;;;3.65;0.40;;;20.80;86.30;;;;;;4980258;28;20034;-63
2021/05/10 10:58:51;;;;;;;1.65;0.40;;;20.80;85.30;;;;;;4970698;28;20030;-70
2021/05/10 11:01:21;;;;;;;1.20;0.30;;;20.80;85.70;;;;;;4978459;28;20034;-68
2021/05/10 11:03:48;;;;;;;1.73;0.20;;;20.90;85.00;;;;;;4977170;28;20106;-65
2021/05/10 11:06:14;;;;;;;0.82;0.20;;;20.90;85.30;;;;;;4960216;28;20350;-63
2021/05/10 11:08:40;;;;;;;3.20;0.30;;;21.10;84.70;;;;;;4961871;28;20098;-71
2021/05/10 11:11:10;;;;;;;2.22;0.40;;;21.00;84.80;;;;;;4959748;28;20026;-63
2021/05/10 11:13:38;;;;;;;1.15;0.30;;;21.00;84.00;;;;;;4973286;28;20033;-58
2021/05/10 11:16:16;;;;;;;2.15;0.30;;;20.90;84.50;;;;;;4953747;28;20027;-64
2021/05/10 11:18:53;;;;;;;2.78;0.30;;;21.00;83.50;;;;;;4953314;28;20038;-63
2021/05/10 11:21:22;;;;;;;2.65;0.40;;;21.20;83.80;;;;;;4953976;28;20095;-62
2021/05/10 11:23:58;;;;;;;1.20;0.17;;;21.10;84.40;;;;;;4970991;28;20054;-65
2021/05/10 11:26:44;;;;;;;0.60;0.28;;;21.00;83.70;;;;;;4965454;28;20031;-63
2021/05/10 11:29:10;;;;;;;0.85;0.20;;;21.10;84.00;;;;;;4971163;28;20039;-62
2021/05/10 11:31:39;;;;;;;1.85;0.32;;;21.20;84.20;;;;;;4954101;28;20031;-73
2021/05/10 11:34:08;;;;;;;2.30;0.25;;;21.10;84.20;;;;;;4971280;28;20429;-63
2021/05/10 11:36:40;;;;;;;1.38;0.30;;;21.20;84.70;;;;;;4971244;28;20046;-63
2021/05/10 11:39:10;;;;;;;0.80;0.30;;;21.20;84.70;;;;;;4970853;28;20046;-64
2021/05/10 11:41:41;;;;;;;5.07;0.55;;;21.20;84.70;;;;;;4956143;28;20030;-65
2021/05/10 11:44:08;;;;;;;0.77;0.20;;;21.30;84.80;;;;;;4970770;28;20101;-64
2021/05/10 11:46:40;;;;;;;2.90;0.25;;;21.10;84.50;;;;;;4955820;28;20034;-64
2021/05/10 11:49:09;;;;;;;3.13;0.38;;;21.00;84.20;;;;;;4961720;28;20048;-65
2021/05/10 11:51:40;;;;;;;7.32;0.95;;;20.80;85.40;;;;;;4979676;28;20428;-69
2021/05/10 11:54:08;;;;;;;2.90;0.43;;;20.90;86.30;;;;;;4959904;28;20453;-67
2021/05/10 11:56:43;;;;;;;16.55;0.60;;;21.10;85.60;;;;;;4952652;28;20042;-70
2021/05/10 11:59:48;;;;;;;0.45;0.25;;;21.00;85.90;;;;;;4969721;28;20093;-67
2021/05/10 12:02:23;;;;;;;6.78;1.05;;;21.00;85.10;;;;;;4970406;28;20089;-68
2021/05/10 12:04:52;;;;;;;0.73;0.20;;;21.00;85.50;;;;;;4953103;28;20766;-65
2021/05/10 12:07:23;;;;;;;0.75;0.30;;;20.70;85.70;;;;;;4953307;28;20175;-66
2021/05/10 12:09:49;;;;;;;1.65;0.20;;;20.60;86.50;;;;;;4970427;28;20022;-68
2021/05/10 12:12:18;;;;;;;1.50;0.20;;;20.30;86.90;;;;;;4952484;28;20035;-65
2021/05/10 12:14:47;;;;;;;1.77;0.20;;;19.90;87.80;;;;;;4963782;28;20047;-65
2021/05/10 12:17:13;;;;;;;5.82;0.63;;;20.10;88.80;;;;;;4970521;28;20027;-65
2021/05/10 12:20:06;;;;;;;4.97;0.43;;;20.00;89.40;;;;;;4951922;28;20111;-66
2021/05/10 12:22:39;;;;;;;0.55;0.20;;;20.10;89.80;;;;;;4952893;28;20073;-66
2021/05/10 12:25:14;;;;;;;2.97;0.40;;;19.90;90.20;;;;;;4970288;28;20169;-66
2021/05/10 12:27:45;;;;;;;1.60;0.52;;;19.80;90.50;;;;;;4968770;28;20038;-64
2021/05/10 12:30:19;;;;;;;;;;;19.90;90.60;;;;;;4970631;28;20473;-66
2021/05/10 12:32:50;;;;;;;2.75;0.30;;;19.70;91.20;;;;;;4969457;28;19917;-66
2021/05/10 12:35:25;;;;;;;2.33;0.52;;;19.50;92.20;;;;;;4947303;28;20129;-68
2021/05/10 12:37:52;;;;;;;0.77;0.22;;;19.60;92.30;;;;;;4952142;28;20043;-66
2021/05/10 12:40:20;;;;;;;0.90;0.32;;;19.40;92.70;;;;;;4952614;28;20467;-67
2021/05/10 12:43:06;;;;;;;3.50;0.38;;;19.20;93.60;;;;;;4951674;28;20038;-65
2021/05/10 12:45:33;;;;;;;10.70;4.90;;;19.10;94.30;;;;;;4970344;28;20070;-59
2021/05/10 12:48:14;;;;;;;4.65;2.28;;;19.40;94.40;;;;;;4968825;28;20314;-59
2021/05/10 12:50:43;;;;;;;23.58;17.63;;;19.50;95.30;;;;;;4952462;28;20031;-64
2021/05/10 12:53:09;;;;;;;16.63;12.20;;;19.70;94.50;;;;;;4970081;28;20031;-58
2021/05/10 12:55:38;;;;;;;10.88;5.68;;;20.20;93.50;;;;;;4968807;28;20061;-62
2021/05/10 12:58:22;;;;;;;10.43;6.00;;;20.20;93.50;;;;;;4968918;28;20116;-58